Glasco, KS

9:44 AM CST on February 01, 2015 (GMT -0600)
Hebron Municipal | Change Station
CLOSE
Current Station
Airport
Location: Hebron,
Elevation: 1467 ft
Nearby Weather Stations

Elev 1467 ft 40.15 °N, 97.59 °W | Updated 9 minutes ago

Snow
Snow
12 °F
Feels Like -5 °F
N
18
Wind Variable Wind from NNW
Gusts 28 mph

Today
High -- | Low -- °F
--% Chance of Precip.
Yesterday
High -- | Low -- °F
Precip. -- in
7:38 AM 5:51 PM
Waxing Gibbous, 95% visible
Pressure 30.07 in
Visibility 0.8 miles
Clouds Overcast 800 ft
Windchill -5 °F
Dew Point 8 °F
Humidity 83%
Rainfall 0.02 in
Snow Depth Not available.
UV 0 out of 12
Pollen .10 out of 12
Air Quality Not available.
Flu Activity Not available.
METAR KHJH 011535Z AUTO 34016G24KT 3/4SM -SN OVC008 M11/M13 A3007 RMK AO2 T11091133

More Conditions Fewer Conditions

Pressure 30.07 in
Visibility 0.8 miles
Clouds Overcast 800 ft
Windchill -5 °F
Dew Point 8 °F
Humidity 83%
Rainfall 0.02 in
Snow Depth Not available.
UV 0 out of 12
Pollen .10 out of 12
Air Quality Not available.
Flu Activity Not available.
METAR KHJH 011535Z AUTO 34016G24KT 3/4SM -SN OVC008 M11/M13 A3007 RMK AO2 T11091133

More Conditions Fewer Conditions

10-Day Weather Forecast

Almanac

Astronomy

Feb. 01, 2015 Rise Set
Actual Time
Civil Twilight
Nautical Twilight
Astronomical Twilight
Moon
Length of Visible Light
Length of Day
Tomorrow will be .
, % of the Moon is Illuminated

Today's Extremes

State Highs State Lows

Community

WunderPhotos

Upload Photos

1,792,362 photos uploaded!

WunderBlogs® & News

Nearby

Air Quality

  Air Quality AQ Index Pollutant
Not available.

Snow Depth

Station Depth Elevation

Earthquake Activity

City Distance Mag. Time & Date
Minimum magnitude displayed is 2.5.

Coastal Water Temperatures

Place Temperature

Nearby Weather Stations